首页
METAR-TAF:

METAR-TAF

机场 :

Enfidha-Hammamet

哈马马特, 突尼斯

纬度: 36-04-34N, 经度: 10-26-19E, 海拔: 6米

当前天气观测

该预报发布于38分钟前的11:00 UTC
风速7节,风向西南,在东南西之间变化
温度 32°C
湿度 38%
气压 1015 hPa
能见度10公里或以上
1500米以下无云,无积雨云

METAR: DTNH 191100Z 22007KT 130V260 CAVOK 32/16 Q1015

时间: 12:38 (11:38 UTC)

预报

该预报发布于6小时和38分钟前的05:00 UTC
预报有效从19日的 06点(UTC)到 20日的 06点(UTC)
风速4节,风向北转东北
能见度10公里或以上
少量云层高于2600英尺
成为
从 19日的 12点(UTC)到 19日的 14点(UTC)
风速10节,风向东转东北
几率 30% :
短暂存在
从 19日的 12点(UTC)到 19日的 20点(UTC)
风速15节,风向多变,有时为30节阵风
能見度: 4000
少量云层高于3300英尺, 积雨云.
雷暴, 小雨
成为
从 20日的 00点(UTC)到 20日的 02点(UTC)
风速3节,风向北转东北

TAF: DTNH 190500Z 1906/2006 02004KT 9999 FEW026 BECMG 1912/1914 06010KT PROB30 TEMPO 1912/1920 VRB15G30KT 4000 -TSRA FEW033CB BECMG 2000/2002 02003KT

超过4000个机场的气象观测和天气预报(METAR&TAF报告)。

可查询的气象台以黄色和红色小点在地图上表示。

将鼠标移到小点上方,可查看气象台名称。

然后点击查看天气观测和预报。

如需切换地图:点击带黑十字的绿色按钮放大地图;点击带横线的绿色按钮缩小地图;或者点击绿色箭头查看邻近地区的地图。


METAR-TAF: